sensor_id;sensor_type;location;lat;lon;timestamp;temperature;humidity
2010;DHT22;1008;47.404;8.502;2023-04-15T00:01:08;8.50;99.90
2010;DHT22;1008;47.404;8.502;2023-04-15T00:03:36;8.50;99.90
2010;DHT22;1008;47.404;8.502;2023-04-15T00:06:03;8.40;99.90
2010;DHT22;1008;47.404;8.502;2023-04-15T00:08:31;8.30;99.90
2010;DHT22;1008;47.404;8.502;2023-04-15T00:10:58;8.30;99.90
2010;DHT22;1008;47.404;8.502;2023-04-15T00:13:27;8.30;99.90
2010;DHT22;1008;47.404;8.502;2023-04-15T00:15:54;8.30;99.90
2010;DHT22;1008;47.404;8.502;2023-04-15T00:18:20;8.40;99.90
2010;DHT22;1008;47.404;8.502;2023-04-15T00:20:47;8.70;99.90
2010;DHT22;1008;47.404;8.502;2023-04-15T00:23:14;8.50;99.90
2010;DHT22;1008;47.404;8.502;2023-04-15T00:25:42;8.40;99.90
2010;DHT22;1008;47.404;8.502;2023-04-15T00:28:09;8.30;99.90
2010;DHT22;1008;47.404;8.502;2023-04-15T00:30:36;8.30;99.90
2010;DHT22;1008;47.404;8.502;2023-04-15T00:33:03;8.30;99.90
2010;DHT22;1008;47.404;8.502;2023-04-15T00:35:30;8.40;99.90
2010;DHT22;1008;47.404;8.502;2023-04-15T00:37:57;8.30;99.90
2010;DHT22;1008;47.404;8.502;2023-04-15T00:40:24;8.50;99.90
2010;DHT22;1008;47.404;8.502;2023-04-15T00:42:53;8.10;99.90
2010;DHT22;1008;47.404;8.502;2023-04-15T00:45:20;8.20;99.90
2010;DHT22;1008;47.404;8.502;2023-04-15T00:47:47;8.00;99.90
2010;DHT22;1008;47.404;8.502;2023-04-15T00:50:14;8.00;99.90
2010;DHT22;1008;47.404;8.502;2023-04-15T00:52:40;8.10;99.90
2010;DHT22;1008;47.404;8.502;2023-04-15T00:55:09;8.10;99.90
2010;DHT22;1008;47.404;8.502;2023-04-15T00:57:36;8.10;99.90
2010;DHT22;1008;47.404;8.502;2023-04-15T01:00:06;8.10;99.90
2010;DHT22;1008;47.404;8.502;2023-04-15T01:02:34;8.00;99.90
2010;DHT22;1008;47.404;8.502;2023-04-15T01:05:03;8.30;99.90
2010;DHT22;1008;47.404;8.502;2023-04-15T01:07:30;8.10;99.90
2010;DHT22;1008;47.404;8.502;2023-04-15T01:09:57;8.00;99.90
2010;DHT22;1008;47.404;8.502;2023-04-15T01:12:25;8.10;99.90
2010;DHT22;1008;47.404;8.502;2023-04-15T01:14:52;8.20;99.90
2010;DHT22;1008;47.404;8.502;2023-04-15T01:17:21;8.40;99.90
2010;DHT22;1008;47.404;8.502;2023-04-15T01:19:47;8.30;99.90
2010;DHT22;1008;47.404;8.502;2023-04-15T01:22:14;8.30;99.90
2010;DHT22;1008;47.404;8.502;2023-04-15T01:24:43;8.30;99.90
2010;DHT22;1008;47.404;8.502;2023-04-15T01:27:16;8.50;99.90
2010;DHT22;1008;47.404;8.502;2023-04-15T01:29:42;8.50;99.90
2010;DHT22;1008;47.404;8.502;2023-04-15T01:32:09;8.50;99.90
2010;DHT22;1008;47.404;8.502;2023-04-15T01:34:36;8.50;99.90
2010;DHT22;1008;47.404;8.502;2023-04-15T01:37:03;8.50;99.90
2010;DHT22;1008;47.404;8.502;2023-04-15T01:39:29;8.50;99.90
2010;DHT22;1008;47.404;8.502;2023-04-15T01:41:56;8.50;99.90
2010;DHT22;1008;47.404;8.502;2023-04-15T01:44:24;8.40;99.90
2010;DHT22;1008;47.404;8.502;2023-04-15T01:46:52;8.50;99.90
2010;DHT22;1008;47.404;8.502;2023-04-15T01:49:18;8.50;99.90
2010;DHT22;1008;47.404;8.502;2023-04-15T01:51:45;8.50;99.90
2010;DHT22;1008;47.404;8.502;2023-04-15T01:54:12;8.60;99.90
2010;DHT22;1008;47.404;8.502;2023-04-15T01:56:39;8.60;99.90
2010;DHT22;1008;47.404;8.502;2023-04-15T01:59:05;8.70;99.90
2010;DHT22;1008;47.404;8.502;2023-04-15T02:01:34;8.70;99.90
2010;DHT22;1008;47.404;8.502;2023-04-15T02:04:01;8.90;99.90
2010;DHT22;1008;47.404;8.502;2023-04-15T02:06:28;8.50;99.90
2010;DHT22;1008;47.404;8.502;2023-04-15T02:08:54;8.40;99.90
2010;DHT22;1008;47.404;8.502;2023-04-15T02:11:21;8.30;99.90
2010;DHT22;1008;47.404;8.502;2023-04-15T02:13:48;8.20;99.90
2010;DHT22;1008;47.404;8.502;2023-04-15T02:16:15;8.20;99.90
2010;DHT22;1008;47.404;8.502;2023-04-15T02:18:44;8.30;99.90
2010;DHT22;1008;47.404;8.502;2023-04-15T02:21:11;8.30;99.90
2010;DHT22;1008;47.404;8.502;2023-04-15T02:23:38;8.30;99.90
2010;DHT22;1008;47.404;8.502;2023-04-15T02:26:05;8.20;99.90
2010;DHT22;1008;47.404;8.502;2023-04-15T02:28:32;8.40;99.90
2010;DHT22;1008;47.404;8.502;2023-04-15T02:30:59;8.00;99.90
2010;DHT22;1008;47.404;8.502;2023-04-15T02:33:26;8.00;99.90
2010;DHT22;1008;47.404;8.502;2023-04-15T02:35:54;8.00;99.90
2010;DHT22;1008;47.404;8.502;2023-04-15T02:38:21;8.10;99.90
2010;DHT22;1008;47.404;8.502;2023-04-15T02:40:48;8.00;99.90
2010;DHT22;1008;47.404;8.502;2023-04-15T02:43:15;7.90;99.90
2010;DHT22;1008;47.404;8.502;2023-04-15T02:45:42;7.70;99.90
2010;DHT22;1008;47.404;8.502;2023-04-15T02:48:09;7.80;99.90
2010;DHT22;1008;47.404;8.502;2023-04-15T02:50:36;7.50;99.90
2010;DHT22;1008;47.404;8.502;2023-04-15T02:53:05;7.70;99.90
2010;DHT22;1008;47.404;8.502;2023-04-15T02:55:32;7.80;99.90
2010;DHT22;1008;47.404;8.502;2023-04-15T02:57:59;7.80;99.90
2010;DHT22;1008;47.404;8.502;2023-04-15T03:00:26;7.70;99.90
2010;DHT22;1008;47.404;8.502;2023-04-15T03:02:57;7.80;99.90
2010;DHT22;1008;47.404;8.502;2023-04-15T03:05:25;7.70;99.90
2010;DHT22;1008;47.404;8.502;2023-04-15T03:07:52;7.80;99.90
2010;DHT22;1008;47.404;8.502;2023-04-15T03:10:21;8.10;99.90
2010;DHT22;1008;47.404;8.502;2023-04-15T03:12:48;7.80;99.90
2010;DHT22;1008;47.404;8.502;2023-04-15T03:15:14;7.80;99.90
2010;DHT22;1008;47.404;8.502;2023-04-15T03:17:41;7.80;99.90
2010;DHT22;1008;47.404;8.502;2023-04-15T03:20:09;7.60;99.90
2010;DHT22;1008;47.404;8.502;2023-04-15T03:22:35;7.60;99.90
2010;DHT22;1008;47.404;8.502;2023-04-15T03:25:02;7.50;99.90
2010;DHT22;1008;47.404;8.502;2023-04-15T03:27:31;7.60;99.90
2010;DHT22;1008;47.404;8.502;2023-04-15T03:29:57;7.60;99.90
2010;DHT22;1008;47.404;8.502;2023-04-15T03:32:24;7.80;99.90
2010;DHT22;1008;47.404;8.502;2023-04-15T03:34:51;7.90;99.90
2010;DHT22;1008;47.404;8.502;2023-04-15T03:37:18;8.20;99.90
2010;DHT22;1008;47.404;8.502;2023-04-15T03:39:45;8.00;99.90
2010;DHT22;1008;47.404;8.502;2023-04-15T03:42:12;7.90;99.90
2010;DHT22;1008;47.404;8.502;2023-04-15T03:44:40;7.90;99.90
2010;DHT22;1008;47.404;8.502;2023-04-15T03:47:06;8.20;99.90
2010;DHT22;1008;47.404;8.502;2023-04-15T03:49:33;8.20;99.90
2010;DHT22;1008;47.404;8.502;2023-04-15T03:52:00;8.00;99.90
2010;DHT22;1008;47.404;8.502;2023-04-15T03:54:27;7.80;99.90
2010;DHT22;1008;47.404;8.502;2023-04-15T03:56:53;7.90;99.90
2010;DHT22;1008;47.404;8.502;2023-04-15T03:59:21;8.00;99.90
2010;DHT22;1008;47.404;8.502;2023-04-15T04:01:49;7.90;99.90
2010;DHT22;1008;47.404;8.502;2023-04-15T04:04:16;7.90;99.90
2010;DHT22;1008;47.404;8.502;2023-04-15T04:06:43;7.80;99.90
2010;DHT22;1008;47.404;8.502;2023-04-15T04:09:10;7.90;99.90
2010;DHT22;1008;47.404;8.502;2023-04-15T04:11:36;8.00;99.90
2010;DHT22;1008;47.404;8.502;2023-04-15T04:14:03;8.00;99.90
2010;DHT22;1008;47.404;8.502;2023-04-15T04:16:31;8.10;99.90
2010;DHT22;1008;47.404;8.502;2023-04-15T04:18:59;7.90;99.90
2010;DHT22;1008;47.404;8.502;2023-04-15T04:21:26;8.00;99.90
2010;DHT22;1008;47.404;8.502;2023-04-15T04:23:53;8.10;99.90
2010;DHT22;1008;47.404;8.502;2023-04-15T04:26:21;8.10;99.90
2010;DHT22;1008;47.404;8.502;2023-04-15T04:28:47;7.80;99.90
2010;DHT22;1008;47.404;8.502;2023-04-15T04:31:14;8.10;99.90
2010;DHT22;1008;47.404;8.502;2023-04-15T04:33:41;7.70;99.90
2010;DHT22;1008;47.404;8.502;2023-04-15T04:36:09;7.70;99.90
2010;DHT22;1008;47.404;8.502;2023-04-15T04:38:36;8.10;99.90
2010;DHT22;1008;47.404;8.502;2023-04-15T04:41:03;7.70;99.90
2010;DHT22;1008;47.404;8.502;2023-04-15T04:43:29;7.70;99.90
2010;DHT22;1008;47.404;8.502;2023-04-15T04:45:56;7.60;99.90
2010;DHT22;1008;47.404;8.502;2023-04-15T04:48:23;7.70;99.90
2010;DHT22;1008;47.404;8.502;2023-04-15T04:50:50;7.60;99.90
2010;DHT22;1008;47.404;8.502;2023-04-15T04:53:19;7.60;99.90
2010;DHT22;1008;47.404;8.502;2023-04-15T04:55:46;7.60;99.90
2010;DHT22;1008;47.404;8.502;2023-04-15T04:58:12;7.60;99.90
2010;DHT22;1008;47.404;8.502;2023-04-15T05:00:39;7.70;99.90
2010;DHT22;1008;47.404;8.502;2023-04-15T05:03:06;8.00;99.90
2010;DHT22;1008;47.404;8.502;2023-04-15T05:05:33;7.70;99.90
2010;DHT22;1008;47.404;8.502;2023-04-15T05:08:01;7.60;99.90
2010;DHT22;1008;47.404;8.502;2023-04-15T05:10:29;7.80;99.90
2010;DHT22;1008;47.404;8.502;2023-04-15T05:12:56;8.00;99.90
2010;DHT22;1008;47.404;8.502;2023-04-15T05:15:23;8.00;99.90
2010;DHT22;1008;47.404;8.502;2023-04-15T05:17:49;8.00;99.90
2010;DHT22;1008;47.404;8.502;2023-04-15T05:20:16;8.00;99.90
2010;DHT22;1008;47.404;8.502;2023-04-15T05:22:43;7.90;99.90
2010;DHT22;1008;47.404;8.502;2023-04-15T05:25:10;8.20;99.90
2010;DHT22;1008;47.404;8.502;2023-04-15T05:27:38;8.00;99.90
2010;DHT22;1008;47.404;8.502;2023-04-15T05:30:06;8.00;99.90
2010;DHT22;1008;47.404;8.502;2023-04-15T05:32:33;7.90;99.90
2010;DHT22;1008;47.404;8.502;2023-04-15T05:35:00;7.90;99.90
2010;DHT22;1008;47.404;8.502;2023-04-15T05:37:26;7.80;99.90
2010;DHT22;1008;47.404;8.502;2023-04-15T05:39:53;7.70;99.90
2010;DHT22;1008;47.404;8.502;2023-04-15T05:42:21;7.70;99.90
2010;DHT22;1008;47.404;8.502;2023-04-15T05:44:49;7.80;99.90
2010;DHT22;1008;47.404;8.502;2023-04-15T05:47:16;7.80;99.90
2010;DHT22;1008;47.404;8.502;2023-04-15T05:49:43;7.80;99.90
2010;DHT22;1008;47.404;8.502;2023-04-15T05:52:09;7.90;99.90
2010;DHT22;1008;47.404;8.502;2023-04-15T05:54:36;7.80;99.90
2010;DHT22;1008;47.404;8.502;2023-04-15T05:57:03;7.80;99.90
2010;DHT22;1008;47.404;8.502;2023-04-15T05:59:30;8.00;99.90
2010;DHT22;1008;47.404;8.502;2023-04-15T06:01:58;8.30;99.90
2010;DHT22;1008;47.404;8.502;2023-04-15T06:04:25;8.60;99.90
2010;DHT22;1008;47.404;8.502;2023-04-15T06:06:52;8.60;99.90
2010;DHT22;1008;47.404;8.502;2023-04-15T06:09:18;8.40;99.90
2010;DHT22;1008;47.404;8.502;2023-04-15T06:11:45;8.30;99.90
2010;DHT22;1008;47.404;8.502;2023-04-15T06:14:12;8.40;99.90
2010;DHT22;1008;47.404;8.502;2023-04-15T06:16:39;8.20;99.90
2010;DHT22;1008;47.404;8.502;2023-04-15T06:19:07;8.30;99.90
2010;DHT22;1008;47.404;8.502;2023-04-15T06:21:34;8.50;99.90
2010;DHT22;1008;47.404;8.502;2023-04-15T06:24:01;8.40;99.90
2010;DHT22;1008;47.404;8.502;2023-04-15T06:26:28;8.50;99.90
2010;DHT22;1008;47.404;8.502;2023-04-15T06:28:55;8.50;99.90
2010;DHT22;1008;47.404;8.502;2023-04-15T06:31:22;8.80;99.90
2010;DHT22;1008;47.404;8.502;2023-04-15T06:33:49;8.70;99.90
2010;DHT22;1008;47.404;8.502;2023-04-15T06:36:17;9.00;99.90
2010;DHT22;1008;47.404;8.502;2023-04-15T06:38:44;9.10;99.90
2010;DHT22;1008;47.404;8.502;2023-04-15T06:41:11;9.20;99.90
2010;DHT22;1008;47.404;8.502;2023-04-15T06:43:38;9.10;99.90
2010;DHT22;1008;47.404;8.502;2023-04-15T06:46:04;9.20;99.90
2010;DHT22;1008;47.404;8.502;2023-04-15T06:48:31;9.10;99.90
2010;DHT22;1008;47.404;8.502;2023-04-15T06:50:58;9.60;99.90
2010;DHT22;1008;47.404;8.502;2023-04-15T06:53:26;9.60;99.90
2010;DHT22;1008;47.404;8.502;2023-04-15T06:55:53;9.80;99.90
2010;DHT22;1008;47.404;8.502;2023-04-15T06:58:20;9.90;99.90
2010;DHT22;1008;47.404;8.502;2023-04-15T07:00:47;10.10;99.90
2010;DHT22;1008;47.404;8.502;2023-04-15T07:03:13;9.90;99.90
2010;DHT22;1008;47.404;8.502;2023-04-15T07:05:40;9.70;99.90
2010;DHT22;1008;47.404;8.502;2023-04-15T07:08:07;9.70;99.90
2010;DHT22;1008;47.404;8.502;2023-04-15T07:10:35;9.70;99.90
2010;DHT22;1008;47.404;8.502;2023-04-15T07:13:03;9.60;99.90
2010;DHT22;1008;47.404;8.502;2023-04-15T07:15:30;9.60;99.90
2010;DHT22;1008;47.404;8.502;2023-04-15T07:17:56;9.60;99.90
2010;DHT22;1008;47.404;8.502;2023-04-15T07:20:23;9.70;99.90
2010;DHT22;1008;47.404;8.502;2023-04-15T07:22:50;10.00;99.90
2010;DHT22;1008;47.404;8.502;2023-04-15T07:25:17;10.10;99.90
2010;DHT22;1008;47.404;8.502;2023-04-15T07:27:45;10.30;99.90
2010;DHT22;1008;47.404;8.502;2023-04-15T07:30:12;10.40;99.90
2010;DHT22;1008;47.404;8.502;2023-04-15T07:32:39;10.20;99.90
2010;DHT22;1008;47.404;8.502;2023-04-15T07:35:06;10.10;99.90
2010;DHT22;1008;47.404;8.502;2023-04-15T07:37:34;10.00;99.90
2010;DHT22;1008;47.404;8.502;2023-04-15T07:40:01;10.00;99.90
2010;DHT22;1008;47.404;8.502;2023-04-15T07:42:29;9.90;99.90
2010;DHT22;1008;47.404;8.502;2023-04-15T07:44:57;9.60;99.90
2010;DHT22;1008;47.404;8.502;2023-04-15T07:47:24;9.60;99.90
2010;DHT22;1008;47.404;8.502;2023-04-15T07:49:51;9.50;99.90
2010;DHT22;1008;47.404;8.502;2023-04-15T07:52:18;9.50;99.90
2010;DHT22;1008;47.404;8.502;2023-04-15T07:54:45;9.30;99.90
2010;DHT22;1008;47.404;8.502;2023-04-15T07:57:12;9.40;99.90
2010;DHT22;1008;47.404;8.502;2023-04-15T07:59:38;9.40;99.90
2010;DHT22;1008;47.404;8.502;2023-04-15T08:02:07;9.30;99.90
2010;DHT22;1008;47.404;8.502;2023-04-15T08:04:34;9.50;99.90
2010;DHT22;1008;47.404;8.502;2023-04-15T08:07:01;9.40;99.90
2010;DHT22;1008;47.404;8.502;2023-04-15T08:09:28;9.40;99.90
2010;DHT22;1008;47.404;8.502;2023-04-15T08:11:55;9.50;99.90
2010;DHT22;1008;47.404;8.502;2023-04-15T08:14:23;9.50;99.90
2010;DHT22;1008;47.404;8.502;2023-04-15T08:16:50;9.60;99.90
2010;DHT22;1008;47.404;8.502;2023-04-15T08:19:18;9.80;99.90
2010;DHT22;1008;47.404;8.502;2023-04-15T08:21:45;9.70;99.90
2010;DHT22;1008;47.404;8.502;2023-04-15T08:24:11;10.00;99.90
2010;DHT22;1008;47.404;8.502;2023-04-15T08:26:38;10.20;99.90
2010;DHT22;1008;47.404;8.502;2023-04-15T08:29:06;10.30;99.90
2010;DHT22;1008;47.404;8.502;2023-04-15T08:31:33;10.50;99.90
2010;DHT22;1008;47.404;8.502;2023-04-15T08:34:00;10.30;99.90
2010;DHT22;1008;47.404;8.502;2023-04-15T08:36:28;10.20;99.90
2010;DHT22;1008;47.404;8.502;2023-04-15T08:38:55;10.30;99.90
2010;DHT22;1008;47.404;8.502;2023-04-15T08:41:22;10.40;99.90
2010;DHT22;1008;47.404;8.502;2023-04-15T08:43:52;10.70;99.90
2010;DHT22;1008;47.404;8.502;2023-04-15T08:46:20;10.90;99.90
2010;DHT22;1008;47.404;8.502;2023-04-15T08:48:48;11.10;99.90
2010;DHT22;1008;47.404;8.502;2023-04-15T08:51:15;11.20;99.90
2010;DHT22;1008;47.404;8.502;2023-04-15T08:53:44;11.30;99.90
2010;DHT22;1008;47.404;8.502;2023-04-15T08:56:13;11.30;99.90
2010;DHT22;1008;47.404;8.502;2023-04-15T08:58:41;11.40;99.90
2010;DHT22;1008;47.404;8.502;2023-04-15T09:01:09;11.40;99.90
2010;DHT22;1008;47.404;8.502;2023-04-15T09:03:37;11.70;99.90
2010;DHT22;1008;47.404;8.502;2023-04-15T09:06:04;11.40;99.90
2010;DHT22;1008;47.404;8.502;2023-04-15T09:08:31;11.60;99.90
2010;DHT22;1008;47.404;8.502;2023-04-15T09:11:00;11.60;99.90
2010;DHT22;1008;47.404;8.502;2023-04-15T09:13:27;11.60;99.90
2010;DHT22;1008;47.404;8.502;2023-04-15T09:15:54;11.50;99.90
2010;DHT22;1008;47.404;8.502;2023-04-15T09:18:29;11.80;99.90
2010;DHT22;1008;47.404;8.502;2023-04-15T09:20:55;11.60;99.90
2010;DHT22;1008;47.404;8.502;2023-04-15T09:23:30;11.70;99.90
2010;DHT22;1008;47.404;8.502;2023-04-15T09:25:57;11.60;99.90
2010;DHT22;1008;47.404;8.502;2023-04-15T09:28:25;11.70;99.90
2010;DHT22;1008;47.404;8.502;2023-04-15T09:30:55;11.80;99.90
2010;DHT22;1008;47.404;8.502;2023-04-15T09:33:22;11.90;99.90
2010;DHT22;1008;47.404;8.502;2023-04-15T09:35:56;12.00;99.90
2010;DHT22;1008;47.404;8.502;2023-04-15T09:38:24;12.10;99.90
2010;DHT22;1008;47.404;8.502;2023-04-15T09:40:51;12.40;99.90
2010;DHT22;1008;47.404;8.502;2023-04-15T09:43:18;12.40;99.90
2010;DHT22;1008;47.404;8.502;2023-04-15T09:45:48;12.30;99.90
2010;DHT22;1008;47.404;8.502;2023-04-15T09:48:18;12.00;99.90
2010;DHT22;1008;47.404;8.502;2023-04-15T09:50:46;12.20;99.90
2010;DHT22;1008;47.404;8.502;2023-04-15T09:53:18;11.90;99.90
2010;DHT22;1008;47.404;8.502;2023-04-15T09:55:48;11.80;99.90
2010;DHT22;1008;47.404;8.502;2023-04-15T09:58:19;11.80;99.90
2010;DHT22;1008;47.404;8.502;2023-04-15T10:00:48;11.90;99.90
2010;DHT22;1008;47.404;8.502;2023-04-15T10:03:18;12.00;99.90
2010;DHT22;1008;47.404;8.502;2023-04-15T10:05:47;11.70;99.90
2010;DHT22;1008;47.404;8.502;2023-04-15T10:08:15;11.70;99.90
2010;DHT22;1008;47.404;8.502;2023-04-15T10:10:43;11.70;99.90
2010;DHT22;1008;47.404;8.502;2023-04-15T10:13:12;11.70;99.90
2010;DHT22;1008;47.404;8.502;2023-04-15T10:15:40;11.60;99.90
2010;DHT22;1008;47.404;8.502;2023-04-15T10:18:10;11.30;99.90
2010;DHT22;1008;47.404;8.502;2023-04-15T10:20:39;11.60;99.90
2010;DHT22;1008;47.404;8.502;2023-04-15T10:23:07;11.20;99.90
2010;DHT22;1008;47.404;8.502;2023-04-15T10:25:35;11.10;99.90
2010;DHT22;1008;47.404;8.502;2023-04-15T10:28:04;10.80;99.90
2010;DHT22;1008;47.404;8.502;2023-04-15T10:30:32;10.80;99.90
2010;DHT22;1008;47.404;8.502;2023-04-15T10:32:59;10.80;99.90
2010;DHT22;1008;47.404;8.502;2023-04-15T10:35:28;10.80;99.90
2010;DHT22;1008;47.404;8.502;2023-04-15T10:37:55;10.60;99.90
2010;DHT22;1008;47.404;8.502;2023-04-15T10:40:26;10.50;99.90
2010;DHT22;1008;47.404;8.502;2023-04-15T10:42:54;10.70;99.90
2010;DHT22;1008;47.404;8.502;2023-04-15T10:45:21;10.50;99.90
2010;DHT22;1008;47.404;8.502;2023-04-15T10:47:56;10.70;99.90
2010;DHT22;1008;47.404;8.502;2023-04-15T10:50:25;10.70;99.90
2010;DHT22;1008;47.404;8.502;2023-04-15T10:52:54;10.60;99.90
2010;DHT22;1008;47.404;8.502;2023-04-15T10:55:23;10.60;99.90
2010;DHT22;1008;47.404;8.502;2023-04-15T10:57:51;10.50;99.90
2010;DHT22;1008;47.404;8.502;2023-04-15T11:00:21;10.30;99.90
2010;DHT22;1008;47.404;8.502;2023-04-15T11:02:54;10.30;99.90
2010;DHT22;1008;47.404;8.502;2023-04-15T11:05:22;10.40;99.90
2010;DHT22;1008;47.404;8.502;2023-04-15T11:08:11;10.90;99.90
2010;DHT22;1008;47.404;8.502;2023-04-15T11:10:53;10.50;99.90
2010;DHT22;1008;47.404;8.502;2023-04-15T11:13:22;10.30;99.90
2010;DHT22;1008;47.404;8.502;2023-04-15T11:15:50;10.30;99.90
2010;DHT22;1008;47.404;8.502;2023-04-15T11:18:22;10.30;99.90
2010;DHT22;1008;47.404;8.502;2023-04-15T11:20:50;10.30;99.90
2010;DHT22;1008;47.404;8.502;2023-04-15T11:23:27;10.30;99.90
2010;DHT22;1008;47.404;8.502;2023-04-15T11:25:54;10.20;99.90
2010;DHT22;1008;47.404;8.502;2023-04-15T11:28:24;10.20;99.90
2010;DHT22;1008;47.404;8.502;2023-04-15T11:30:51;10.00;99.90
2010;DHT22;1008;47.404;8.502;2023-04-15T11:33:20;10.00;99.90
2010;DHT22;1008;47.404;8.502;2023-04-15T11:35:47;9.90;99.90
2010;DHT22;1008;47.404;8.502;2023-04-15T11:38:15;9.70;99.90
2010;DHT22;1008;47.404;8.502;2023-04-15T11:40:44;9.90;99.90
2010;DHT22;1008;47.404;8.502;2023-04-15T11:43:13;10.20;99.90
2010;DHT22;1008;47.404;8.502;2023-04-15T11:45:49;9.90;99.90
2010;DHT22;1008;47.404;8.502;2023-04-15T11:48:17;9.90;99.90
2010;DHT22;1008;47.404;8.502;2023-04-15T11:50:44;10.10;99.90
2010;DHT22;1008;47.404;8.502;2023-04-15T11:53:12;10.20;99.90
2010;DHT22;1008;47.404;8.502;2023-04-15T11:55:45;10.10;99.90
2010;DHT22;1008;47.404;8.502;2023-04-15T11:58:13;10.20;99.90
2010;DHT22;1008;47.404;8.502;2023-04-15T12:00:45;10.00;99.90
2010;DHT22;1008;47.404;8.502;2023-04-15T12:03:23;10.30;99.90
2010;DHT22;1008;47.404;8.502;2023-04-15T12:06:10;10.20;99.90
2010;DHT22;1008;47.404;8.502;2023-04-15T12:08:57;10.30;99.90
2010;DHT22;1008;47.404;8.502;2023-04-15T12:11:40;10.30;99.90
2010;DHT22;1008;47.404;8.502;2023-04-15T12:14:25;10.50;99.90
2010;DHT22;1008;47.404;8.502;2023-04-15T12:16:54;10.60;99.90
2010;DHT22;1008;47.404;8.502;2023-04-15T12:19:25;10.90;99.90
2010;DHT22;1008;47.404;8.502;2023-04-15T12:21:56;11.10;99.90
2010;DHT22;1008;47.404;8.502;2023-04-15T12:24:23;11.10;99.90
2010;DHT22;1008;47.404;8.502;2023-04-15T12:26:53;11.20;99.90
2010;DHT22;1008;47.404;8.502;2023-04-15T12:29:24;11.10;99.90
2010;DHT22;1008;47.404;8.502;2023-04-15T12:31:52;11.30;99.90
2010;DHT22;1008;47.404;8.502;2023-04-15T12:34:26;11.10;99.90
2010;DHT22;1008;47.404;8.502;2023-04-15T12:36:54;11.20;99.90
2010;DHT22;1008;47.404;8.502;2023-04-15T12:39:22;11.10;99.90
2010;DHT22;1008;47.404;8.502;2023-04-15T12:41:49;11.20;99.90
2010;DHT22;1008;47.404;8.502;2023-04-15T12:44:18;10.90;99.90
2010;DHT22;1008;47.404;8.502;2023-04-15T12:46:45;11.00;99.90
2010;DHT22;1008;47.404;8.502;2023-04-15T12:49:12;10.90;99.90
2010;DHT22;1008;47.404;8.502;2023-04-15T12:51:40;10.80;99.90
2010;DHT22;1008;47.404;8.502;2023-04-15T12:54:07;10.80;99.90
2010;DHT22;1008;47.404;8.502;2023-04-15T12:56:34;10.80;99.90
2010;DHT22;1008;47.404;8.502;2023-04-15T12:59:00;10.50;99.90
2010;DHT22;1008;47.404;8.502;2023-04-15T13:01:28;10.40;99.90
2010;DHT22;1008;47.404;8.502;2023-04-15T13:03:55;10.50;99.90
2010;DHT22;1008;47.404;8.502;2023-04-15T13:06:22;10.50;99.90
2010;DHT22;1008;47.404;8.502;2023-04-15T13:08:49;10.60;99.90
2010;DHT22;1008;47.404;8.502;2023-04-15T13:11:19;10.60;99.90
2010;DHT22;1008;47.404;8.502;2023-04-15T13:13:46;10.80;99.90
2010;DHT22;1008;47.404;8.502;2023-04-15T13:16:13;10.80;99.90
2010;DHT22;1008;47.404;8.502;2023-04-15T13:18:41;10.80;99.90
2010;DHT22;1008;47.404;8.502;2023-04-15T13:21:08;10.80;99.90
2010;DHT22;1008;47.404;8.502;2023-04-15T13:23:35;10.60;99.90
2010;DHT22;1008;47.404;8.502;2023-04-15T13:26:02;10.60;99.90
2010;DHT22;1008;47.404;8.502;2023-04-15T13:28:28;10.50;99.90
2010;DHT22;1008;47.404;8.502;2023-04-15T13:30:55;10.30;99.90
2010;DHT22;1008;47.404;8.502;2023-04-15T13:33:22;10.30;99.90
2010;DHT22;1008;47.404;8.502;2023-04-15T13:35:50;10.40;99.90
2010;DHT22;1008;47.404;8.502;2023-04-15T13:38:17;10.60;99.90
2010;DHT22;1008;47.404;8.502;2023-04-15T13:40:44;10.50;99.90
2010;DHT22;1008;47.404;8.502;2023-04-15T13:43:11;10.60;99.90
2010;DHT22;1008;47.404;8.502;2023-04-15T13:45:37;10.60;99.90
2010;DHT22;1008;47.404;8.502;2023-04-15T13:48:05;10.30;99.90
2010;DHT22;1008;47.404;8.502;2023-04-15T13:50:32;10.40;99.90
2010;DHT22;1008;47.404;8.502;2023-04-15T13:53:00;10.30;99.90
2010;DHT22;1008;47.404;8.502;2023-04-15T13:55:27;10.30;99.90
2010;DHT22;1008;47.404;8.502;2023-04-15T13:57:54;10.20;99.90
2010;DHT22;1008;47.404;8.502;2023-04-15T14:00:21;10.30;99.90
2010;DHT22;1008;47.404;8.502;2023-04-15T14:02:48;10.50;99.90
2010;DHT22;1008;47.404;8.502;2023-04-15T14:05:15;10.50;99.90
2010;DHT22;1008;47.404;8.502;2023-04-15T14:07:42;10.50;99.90
2010;DHT22;1008;47.404;8.502;2023-04-15T14:10:10;10.50;99.90
2010;DHT22;1008;47.404;8.502;2023-04-15T14:12:36;10.50;99.90
2010;DHT22;1008;47.404;8.502;2023-04-15T14:15:04;10.80;99.90
2010;DHT22;1008;47.404;8.502;2023-04-15T14:17:32;10.50;99.90
2010;DHT22;1008;47.404;8.502;2023-04-15T14:19:59;10.40;99.90
2010;DHT22;1008;47.404;8.502;2023-04-15T14:22:26;10.40;99.90
2010;DHT22;1008;47.404;8.502;2023-04-15T14:24:52;10.10;99.90
2010;DHT22;1008;47.404;8.502;2023-04-15T14:27:21;10.10;99.90
2010;DHT22;1008;47.404;8.502;2023-04-15T14:29:48;10.20;99.90
2010;DHT22;1008;47.404;8.502;2023-04-15T14:32:15;10.20;99.90
2010;DHT22;1008;47.404;8.502;2023-04-15T14:34:42;10.40;99.90
2010;DHT22;1008;47.404;8.502;2023-04-15T14:37:08;10.20;99.90
2010;DHT22;1008;47.404;8.502;2023-04-15T14:39:35;10.20;99.90
2010;DHT22;1008;47.404;8.502;2023-04-15T14:42:02;10.20;99.90
2010;DHT22;1008;47.404;8.502;2023-04-15T14:44:30;10.10;99.90
2010;DHT22;1008;47.404;8.502;2023-04-15T14:46:57;10.10;99.90
2010;DHT22;1008;47.404;8.502;2023-04-15T14:49:24;10.00;99.90
2010;DHT22;1008;47.404;8.502;2023-04-15T14:51:50;10.00;99.90
2010;DHT22;1008;47.404;8.502;2023-04-15T14:54:17;9.90;99.90
2010;DHT22;1008;47.404;8.502;2023-04-15T14:56:44;9.80;99.90
2010;DHT22;1008;47.404;8.502;2023-04-15T14:59:11;9.90;99.90
2010;DHT22;1008;47.404;8.502;2023-04-15T15:01:39;10.00;99.90
2010;DHT22;1008;47.404;8.502;2023-04-15T15:04:05;10.00;99.90
2010;DHT22;1008;47.404;8.502;2023-04-15T15:06:33;9.90;99.90
2010;DHT22;1008;47.404;8.502;2023-04-15T15:09:00;10.10;99.90
2010;DHT22;1008;47.404;8.502;2023-04-15T15:11:27;9.80;99.90
2010;DHT22;1008;47.404;8.502;2023-04-15T15:13:54;9.90;99.90
2010;DHT22;1008;47.404;8.502;2023-04-15T15:16:21;9.80;99.90
2010;DHT22;1008;47.404;8.502;2023-04-15T15:18:49;9.90;99.90
2010;DHT22;1008;47.404;8.502;2023-04-15T15:21:16;10.20;99.90
2010;DHT22;1008;47.404;8.502;2023-04-15T15:23:44;10.00;99.90
2010;DHT22;1008;47.404;8.502;2023-04-15T15:26:10;9.90;99.90
2010;DHT22;1008;47.404;8.502;2023-04-15T15:28:37;9.80;99.90
2010;DHT22;1008;47.404;8.502;2023-04-15T15:31:04;10.00;99.90
2010;DHT22;1008;47.404;8.502;2023-04-15T15:33:31;9.90;99.90
2010;DHT22;1008;47.404;8.502;2023-04-15T15:35:59;9.90;99.90
2010;DHT22;1008;47.404;8.502;2023-04-15T15:38:27;10.00;99.90
2010;DHT22;1008;47.404;8.502;2023-04-15T15:40:53;10.00;99.90
2010;DHT22;1008;47.404;8.502;2023-04-15T15:43:20;9.90;99.90
2010;DHT22;1008;47.404;8.502;2023-04-15T15:45:47;10.30;99.90
2010;DHT22;1008;47.404;8.502;2023-04-15T15:48:16;9.90;99.90
2010;DHT22;1008;47.404;8.502;2023-04-15T15:50:43;10.00;99.90
2010;DHT22;1008;47.404;8.502;2023-04-15T15:53:11;10.00;99.90
2010;DHT22;1008;47.404;8.502;2023-04-15T15:55:42;10.00;99.90
2010;DHT22;1008;47.404;8.502;2023-04-15T15:58:09;10.00;99.90
2010;DHT22;1008;47.404;8.502;2023-04-15T16:00:35;10.00;99.90
2010;DHT22;1008;47.404;8.502;2023-04-15T16:03:03;10.00;99.90
2010;DHT22;1008;47.404;8.502;2023-04-15T16:05:30;10.00;99.90
2010;DHT22;1008;47.404;8.502;2023-04-15T16:07:56;10.10;99.90
2010;DHT22;1008;47.404;8.502;2023-04-15T16:10:25;10.00;99.90
2010;DHT22;1008;47.404;8.502;2023-04-15T16:12:51;10.10;99.90